sensor_id;sensor_type;location;lat;lon;timestamp;pressure;altitude;pressure_sealevel;temperature;humidity
13068;BME280;6600;51.362;6.686;2023-04-21T00:01:34;101015.50;;;8.68;100.00
13068;BME280;6600;51.362;6.686;2023-04-21T00:03:59;101021.63;;;8.61;100.00
13068;BME280;6600;51.362;6.686;2023-04-21T00:06:25;101031.97;;;8.71;100.00
13068;BME280;6600;51.362;6.686;2023-04-21T00:08:51;101027.84;;;8.69;100.00
13068;BME280;6600;51.362;6.686;2023-04-21T00:11:16;101033.50;;;8.59;100.00
13068;BME280;6600;51.362;6.686;2023-04-21T00:13:42;101022.09;;;8.72;100.00
13068;BME280;6600;51.362;6.686;2023-04-21T00:16:07;101030.34;;;8.77;100.00
13068;BME280;6600;51.362;6.686;2023-04-21T00:18:33;101018.41;;;8.73;100.00
13068;BME280;6600;51.362;6.686;2023-04-21T00:20:58;101018.41;;;8.73;100.00
13068;BME280;6600;51.362;6.686;2023-04-21T00:23:23;101017.59;;;8.72;100.00
13068;BME280;6600;51.362;6.686;2023-04-21T00:25:49;101009.59;;;8.72;100.00
13068;BME280;6600;51.362;6.686;2023-04-21T00:28:14;101006.47;;;8.69;100.00
13068;BME280;6600;51.362;6.686;2023-04-21T00:30:40;100989.38;;;8.63;100.00
13068;BME280;6600;51.362;6.686;2023-04-21T00:33:06;101002.53;;;8.65;100.00
13068;BME280;6600;51.362;6.686;2023-04-21T00:35:31;100996.81;;;8.68;100.00
13068;BME280;6600;51.362;6.686;2023-04-21T00:37:56;100983.84;;;8.65;100.00
13068;BME280;6600;51.362;6.686;2023-04-21T00:40:34;100985.47;;;8.66;100.00
13068;BME280;6600;51.362;6.686;2023-04-21T00:42:59;100979.31;;;8.65;100.00
13068;BME280;6600;51.362;6.686;2023-04-21T00:45:25;100975.19;;;8.62;100.00
13068;BME280;6600;51.362;6.686;2023-04-21T00:47:50;100988.78;;;8.68;100.00
13068;BME280;6600;51.362;6.686;2023-04-21T00:50:16;100978.28;;;8.66;100.00
13068;BME280;6600;51.362;6.686;2023-04-21T00:52:42;100976.59;;;8.58;100.00
13068;BME280;6600;51.362;6.686;2023-04-21T00:55:08;100976.66;;;8.65;100.00
13068;BME280;6600;51.362;6.686;2023-04-21T00:57:35;100962.53;;;8.78;100.00
13068;BME280;6600;51.362;6.686;2023-04-21T01:00:02;100967.47;;;8.81;100.00
13068;BME280;6600;51.362;6.686;2023-04-21T01:02:29;100975.69;;;8.79;100.00
13068;BME280;6600;51.362;6.686;2023-04-21T01:04:55;100980.25;;;8.85;100.00
13068;BME280;6600;51.362;6.686;2023-04-21T01:07:24;100978.63;;;8.91;100.00
13068;BME280;6600;51.362;6.686;2023-04-21T01:09:49;100960.94;;;8.90;100.00
13068;BME280;6600;51.362;6.686;2023-04-21T01:12:14;100968.81;;;8.98;100.00
13068;BME280;6600;51.362;6.686;2023-04-21T01:14:40;100990.19;;;8.98;100.00
13068;BME280;6600;51.362;6.686;2023-04-21T01:17:06;100972.09;;;9.00;100.00
13068;BME280;6600;51.362;6.686;2023-04-21T01:19:37;100974.97;;;8.98;100.00
13068;BME280;6600;51.362;6.686;2023-04-21T01:22:05;100977.44;;;9.00;100.00
13068;BME280;6600;51.362;6.686;2023-04-21T01:24:42;100950.09;;;8.98;100.00
13068;BME280;6600;51.362;6.686;2023-04-21T01:27:12;100954.44;;;8.99;100.00
13068;BME280;6600;51.362;6.686;2023-04-21T01:29:39;100968.81;;;8.98;100.00
13068;BME280;6600;51.362;6.686;2023-04-21T01:32:25;100963.47;;;8.98;100.00
13068;BME280;6600;51.362;6.686;2023-04-21T01:34:53;100955.63;;;8.96;100.00
13068;BME280;6600;51.362;6.686;2023-04-21T01:37:21;100950.09;;;8.98;100.00
13068;BME280;6600;51.362;6.686;2023-04-21T01:39:50;100948.69;;;9.02;100.00
13068;BME280;6600;51.362;6.686;2023-04-21T01:42:17;100948.28;;;9.05;100.00
13068;BME280;6600;51.362;6.686;2023-04-21T01:44:43;100948.28;;;9.05;100.00
13068;BME280;6600;51.362;6.686;2023-04-21T01:47:08;100948.69;;;9.02;100.00
13068;BME280;6600;51.362;6.686;2023-04-21T01:49:33;100947.88;;;9.08;100.00
13068;BME280;6600;51.362;6.686;2023-04-21T01:51:59;100947.88;;;9.08;100.00
13068;BME280;6600;51.362;6.686;2023-04-21T01:54:24;100947.47;;;9.11;100.00
13068;BME280;6600;51.362;6.686;2023-04-21T01:56:50;100949.13;;;9.12;100.00
13068;BME280;6600;51.362;6.686;2023-04-21T01:59:15;100942.13;;;9.11;100.00
13068;BME280;6600;51.362;6.686;2023-04-21T02:01:41;100930.81;;;9.09;100.00
13068;BME280;6600;51.362;6.686;2023-04-21T02:04:07;100934.75;;;9.13;100.00
13068;BME280;6600;51.362;6.686;2023-04-21T02:06:32;100936.81;;;9.24;100.00
13068;BME280;6600;51.362;6.686;2023-04-21T02:08:57;100936.00;;;9.24;100.00
13068;BME280;6600;51.362;6.686;2023-04-21T02:11:23;100945.47;;;9.20;100.00
13068;BME280;6600;51.362;6.686;2023-04-21T02:13:53;100939.06;;;9.21;100.00
13068;BME280;6600;51.362;6.686;2023-04-21T02:16:19;100941.78;;;9.27;100.00
13068;BME280;6600;51.362;6.686;2023-04-21T02:18:45;100936.00;;;9.24;100.00
13068;BME280;6600;51.362;6.686;2023-04-21T02:21:11;100939.28;;;9.19;100.00
13068;BME280;6600;51.362;6.686;2023-04-21T02:23:36;100942.16;;;9.24;100.00
13068;BME280;6600;51.362;6.686;2023-04-21T02:26:02;100937.44;;;9.26;100.00
13068;BME280;6600;51.362;6.686;2023-04-21T02:28:27;100930.69;;;9.30;100.00
13068;BME280;6600;51.362;6.686;2023-04-21T02:30:52;100930.03;;;9.28;100.00
13068;BME280;6600;51.362;6.686;2023-04-21T02:33:17;100937.44;;;9.26;100.00
13068;BME280;6600;51.362;6.686;2023-04-21T02:35:43;100929.84;;;9.23;100.00
13068;BME280;6600;51.362;6.686;2023-04-21T02:38:08;100929.03;;;9.29;100.00
13068;BME280;6600;51.362;6.686;2023-04-21T02:40:34;100930.28;;;9.33;100.00
13068;BME280;6600;51.362;6.686;2023-04-21T02:43:01;100919.75;;;9.32;100.00
13068;BME280;6600;51.362;6.686;2023-04-21T02:45:27;100925.09;;;9.25;100.00
13068;BME280;6600;51.362;6.686;2023-04-21T02:47:52;100927.78;;;9.25;100.00
13068;BME280;6600;51.362;6.686;2023-04-21T02:50:18;100925.34;;;9.30;100.00
13068;BME280;6600;51.362;6.686;2023-04-21T02:52:43;100918.56;;;9.34;100.00
13068;BME280;6600;51.362;6.686;2023-04-21T02:55:08;100927.59;;;9.33;100.00
13068;BME280;6600;51.362;6.686;2023-04-21T02:57:34;100924.50;;;9.36;100.00
13068;BME280;6600;51.362;6.686;2023-04-21T02:59:59;100919.56;;;9.33;100.00
13068;BME280;6600;51.362;6.686;2023-04-21T03:02:24;100920.41;;;9.34;100.00
13068;BME280;6600;51.362;6.686;2023-04-21T03:04:50;100927.59;;;9.33;100.00
13068;BME280;6600;51.362;6.686;2023-04-21T03:07:15;100912.38;;;9.27;100.00
13068;BME280;6600;51.362;6.686;2023-04-21T03:09:41;100925.75;;;9.27;100.00
13068;BME280;6600;51.362;6.686;2023-04-21T03:12:06;100926.53;;;9.21;100.00
13068;BME280;6600;51.362;6.686;2023-04-21T03:14:32;100923.22;;;9.12;100.00
13068;BME280;6600;51.362;6.686;2023-04-21T03:16:57;100931.03;;;9.14;100.00
13068;BME280;6600;51.362;6.686;2023-04-21T03:19:22;100933.50;;;9.09;100.00
13068;BME280;6600;51.362;6.686;2023-04-21T03:21:47;100935.53;;;9.07;100.00
13068;BME280;6600;51.362;6.686;2023-04-21T03:24:13;100940.25;;;9.05;100.00
13068;BME280;6600;51.362;6.686;2023-04-21T03:26:39;100945.00;;;9.03;100.00
13068;BME280;6600;51.362;6.686;2023-04-21T03:29:07;100944.31;;;8.94;100.00
13068;BME280;6600;51.362;6.686;2023-04-21T03:31:32;100936.88;;;8.90;100.00
13068;BME280;6600;51.362;6.686;2023-04-21T03:33:57;100949.03;;;8.86;100.00
13068;BME280;6600;51.362;6.686;2023-04-21T03:36:23;100937.47;;;8.79;100.00
13068;BME280;6600;51.362;6.686;2023-04-21T03:38:48;100937.09;;;8.82;100.00
13068;BME280;6600;51.362;6.686;2023-04-21T03:41:13;100935.81;;;8.78;100.00
13068;BME280;6600;51.362;6.686;2023-04-21T03:43:39;100941.56;;;8.75;100.00
13068;BME280;6600;51.362;6.686;2023-04-21T03:46:04;100948.31;;;8.71;100.00
13068;BME280;6600;51.362;6.686;2023-04-21T03:48:29;100946.66;;;8.70;100.00
13068;BME280;6600;51.362;6.686;2023-04-21T03:50:56;100948.94;;;8.73;100.00
13068;BME280;6600;51.362;6.686;2023-04-21T03:53:21;100943.38;;;8.68;100.00
13068;BME280;6600;51.362;6.686;2023-04-21T03:55:49;100945.66;;;8.71;100.00
13068;BME280;6600;51.362;6.686;2023-04-21T03:58:15;100939.88;;;8.67;100.00
13068;BME280;6600;51.362;6.686;2023-04-21T04:00:40;100941.94;;;8.65;100.00
13068;BME280;6600;51.362;6.686;2023-04-21T04:03:05;100939.03;;;8.67;100.00
13068;BME280;6600;51.362;6.686;2023-04-21T04:05:31;100942.56;;;8.67;100.00
13068;BME280;6600;51.362;6.686;2023-04-21T04:07:57;100933.69;;;8.67;100.00
13068;BME280;6600;51.362;6.686;2023-04-21T04:10:22;100934.09;;;8.63;100.00
13068;BME280;6600;51.362;6.686;2023-04-21T04:12:47;100934.50;;;8.60;100.00
13068;BME280;6600;51.362;6.686;2023-04-21T04:15:13;100927.91;;;8.56;100.00
13068;BME280;6600;51.362;6.686;2023-04-21T04:17:39;100924.63;;;8.54;100.00
13068;BME280;6600;51.362;6.686;2023-04-21T04:20:06;100928.31;;;8.60;100.00
13068;BME280;6600;51.362;6.686;2023-04-21T04:22:32;100929.56;;;8.57;100.00
13068;BME280;6600;51.362;6.686;2023-04-21T04:24:58;100927.09;;;8.62;100.00
13068;BME280;6600;51.362;6.686;2023-04-21T04:27:25;100918.88;;;8.57;100.00
13068;BME280;6600;51.362;6.686;2023-04-21T04:29:51;100921.13;;;8.54;100.00
13068;BME280;6600;51.362;6.686;2023-04-21T04:32:17;100935.69;;;8.51;100.00
13068;BME280;6600;51.362;6.686;2023-04-21T04:34:43;100938.38;;;8.51;100.00
13068;BME280;6600;51.362;6.686;2023-04-21T04:37:08;100936.94;;;8.55;100.00
13068;BME280;6600;51.362;6.686;2023-04-21T04:39:35;100936.13;;;8.55;100.00
13068;BME280;6600;51.362;6.686;2023-04-21T04:42:01;100939.41;;;8.57;100.00
13068;BME280;6600;51.362;6.686;2023-04-21T04:44:28;100945.34;;;8.52;100.00
13068;BME280;6600;51.362;6.686;2023-04-21T04:46:53;100945.19;;;8.60;100.00
13068;BME280;6600;51.362;6.686;2023-04-21T04:49:19;100945.59;;;8.57;100.00
13068;BME280;6600;51.362;6.686;2023-04-21T04:51:44;100942.38;;;8.69;100.00
13068;BME280;6600;51.362;6.686;2023-04-21T04:54:10;100939.09;;;8.80;100.00
13068;BME280;6600;51.362;6.686;2023-04-21T04:56:35;100940.78;;;8.87;100.00
13068;BME280;6600;51.362;6.686;2023-04-21T04:59:01;100945.56;;;8.92;100.00
13068;BME280;6600;51.362;6.686;2023-04-21T05:01:26;100947.81;;;8.95;100.00
13068;BME280;6600;51.362;6.686;2023-04-21T05:03:55;100951.09;;;8.97;100.00
13068;BME280;6600;51.362;6.686;2023-04-21T05:06:21;100951.97;;;9.04;100.00
13068;BME280;6600;51.362;6.686;2023-04-21T05:08:47;100960.59;;;8.99;100.00
13068;BME280;6600;51.362;6.686;2023-04-21T05:11:12;100959.75;;;8.99;100.00
13068;BME280;6600;51.362;6.686;2023-04-21T05:13:38;100962.66;;;9.04;100.00
13068;BME280;6600;51.362;6.686;2023-04-21T05:16:03;100958.56;;;9.08;100.00
13068;BME280;6600;51.362;6.686;2023-04-21T05:18:28;100958.16;;;9.11;100.00
13068;BME280;6600;51.362;6.686;2023-04-21T05:20:54;100954.91;;;9.16;100.00
13068;BME280;6600;51.362;6.686;2023-04-21T05:23:20;100954.53;;;9.32;100.00
13068;BME280;6600;51.362;6.686;2023-04-21T05:25:45;100954.59;;;9.51;100.00
13068;BME280;6600;51.362;6.686;2023-04-21T05:28:11;100955.44;;;9.72;100.00
13068;BME280;6600;51.362;6.686;2023-04-21T05:30:36;100956.28;;;9.92;100.00
13068;BME280;6600;51.362;6.686;2023-04-21T05:33:01;100960.81;;;10.11;100.00
13068;BME280;6600;51.362;6.686;2023-04-21T05:35:29;100965.78;;;10.34;100.00
13068;BME280;6600;51.362;6.686;2023-04-21T05:37:55;100959.38;;;10.54;100.00
13068;BME280;6600;51.362;6.686;2023-04-21T05:40:20;100958.31;;;10.62;100.00
13068;BME280;6600;51.362;6.686;2023-04-21T05:42:46;100963.00;;;10.80;100.00
13068;BME280;6600;51.362;6.686;2023-04-21T05:45:11;100967.53;;;10.79;100.00
13068;BME280;6600;51.362;6.686;2023-04-21T05:47:36;100970.41;;;10.91;100.00
13068;BME280;6600;51.362;6.686;2023-04-21T05:50:03;100967.72;;;10.91;100.00
13068;BME280;6600;51.362;6.686;2023-04-21T05:52:29;100965.66;;;10.93;100.00
13068;BME280;6600;51.362;6.686;2023-04-21T05:54:54;100971.41;;;10.90;100.00
13068;BME280;6600;51.362;6.686;2023-04-21T05:57:19;100972.28;;;10.84;100.00
13068;BME280;6600;51.362;6.686;2023-04-21T05:59:45;100965.28;;;10.70;100.00
13068;BME280;6600;51.362;6.686;2023-04-21T06:02:11;100969.84;;;10.62;100.00
13068;BME280;6600;51.362;6.686;2023-04-21T06:04:36;100960.41;;;10.53;100.00
13068;BME280;6600;51.362;6.686;2023-04-21T06:07:07;100960.56;;;10.58;100.00
13068;BME280;6600;51.362;6.686;2023-04-21T06:09:34;100963.06;;;10.53;100.00
13068;BME280;6600;51.362;6.686;2023-04-21T06:12:01;100956.88;;;10.53;100.00
13068;BME280;6600;51.362;6.686;2023-04-21T06:14:26;100959.59;;;10.46;100.00
13068;BME280;6600;51.362;6.686;2023-04-21T06:16:51;100960.81;;;10.50;100.00
13068;BME280;6600;51.362;6.686;2023-04-21T06:19:17;100957.50;;;10.61;100.00
13068;BME280;6600;51.362;6.686;2023-04-21T06:21:42;100953.34;;;10.65;100.00
13068;BME280;6600;51.362;6.686;2023-04-21T06:24:07;100950.69;;;10.72;100.00
13068;BME280;6600;51.362;6.686;2023-04-21T06:26:33;100957.03;;;10.78;100.00
13068;BME280;6600;51.362;6.686;2023-04-21T06:28:58;100955.34;;;10.83;100.00
13068;BME280;6600;51.362;6.686;2023-04-21T06:31:24;100971.03;;;10.93;100.00
13068;BME280;6600;51.362;6.686;2023-04-21T06:33:49;100972.06;;;10.85;100.00
13068;BME280;6600;51.362;6.686;2023-04-21T06:36:14;100962.19;;;10.86;100.00
13068;BME280;6600;51.362;6.686;2023-04-21T06:38:40;100956.19;;;10.84;100.00
13068;BME280;6600;51.362;6.686;2023-04-21T06:41:07;100967.53;;;10.86;100.00
13068;BME280;6600;51.362;6.686;2023-04-21T06:43:33;100970.00;;;10.87;100.00
13068;BME280;6600;51.362;6.686;2023-04-21T06:45:58;100964.00;;;10.92;100.00
13068;BME280;6600;51.362;6.686;2023-04-21T06:48:23;100966.06;;;10.90;100.00
13068;BME280;6600;51.362;6.686;2023-04-21T06:50:49;100956.81;;;10.86;100.00
13068;BME280;6600;51.362;6.686;2023-04-21T06:53:14;100964.59;;;10.94;100.00
13068;BME280;6600;51.362;6.686;2023-04-21T06:55:42;100952.00;;;11.01;100.00
13068;BME280;6600;51.362;6.686;2023-04-21T06:58:07;100955.88;;;11.11;100.00
13068;BME280;6600;51.362;6.686;2023-04-21T07:00:32;100959.75;;;11.22;100.00
13068;BME280;6600;51.362;6.686;2023-04-21T07:02:58;100958.41;;;11.44;100.00
13068;BME280;6600;51.362;6.686;2023-04-21T07:05:23;100951.91;;;11.58;100.00
13068;BME280;6600;51.362;6.686;2023-04-21T07:07:49;100956.59;;;11.70;100.00
13068;BME280;6600;51.362;6.686;2023-04-21T07:10:14;100960.69;;;11.79;100.00
13068;BME280;6600;51.362;6.686;2023-04-21T07:12:44;100953.44;;;11.79;100.00
13068;BME280;6600;51.362;6.686;2023-04-21T07:15:09;100958.16;;;11.84;100.00
13068;BME280;6600;51.362;6.686;2023-04-21T07:17:35;100956.06;;;11.92;100.00
13068;BME280;6600;51.362;6.686;2023-04-21T07:20:00;100960.53;;;11.98;100.00
13068;BME280;6600;51.362;6.686;2023-04-21T07:22:26;100951.91;;;11.90;100.00
13068;BME280;6600;51.362;6.686;2023-04-21T07:24:51;100954.56;;;11.96;100.00
13068;BME280;6600;51.362;6.686;2023-04-21T07:27:16;100960.66;;;12.10;100.00
13068;BME280;6600;51.362;6.686;2023-04-21T07:29:43;100961.69;;;12.09;100.00
13068;BME280;6600;51.362;6.686;2023-04-21T07:32:08;100957.69;;;12.18;100.00
13068;BME280;6600;51.362;6.686;2023-04-21T07:34:34;100953.69;;;12.27;100.00
13068;BME280;6600;51.362;6.686;2023-04-21T07:36:59;100964.38;;;12.34;100.00
13068;BME280;6600;51.362;6.686;2023-04-21T07:39:25;100951.91;;;12.39;100.00
13068;BME280;6600;51.362;6.686;2023-04-21T07:41:50;100955.16;;;12.48;100.00
13068;BME280;6600;51.362;6.686;2023-04-21T07:44:15;100943.19;;;12.44;99.96
13068;BME280;6600;51.362;6.686;2023-04-21T07:46:41;100945.19;;;12.48;99.80
13068;BME280;6600;51.362;6.686;2023-04-21T07:49:06;100948.19;;;12.40;99.61
13068;BME280;6600;51.362;6.686;2023-04-21T07:51:32;100945.66;;;12.45;99.35
13068;BME280;6600;51.362;6.686;2023-04-21T07:53:57;100948.63;;;12.55;99.26
13068;BME280;6600;51.362;6.686;2023-04-21T07:56:22;100944.34;;;12.54;98.30
13068;BME280;6600;51.362;6.686;2023-04-21T07:58:48;100950.47;;;12.61;99.05
13068;BME280;6600;51.362;6.686;2023-04-21T08:01:13;100946.72;;;12.62;98.70
13068;BME280;6600;51.362;6.686;2023-04-21T08:03:38;100954.03;;;12.74;98.96
13068;BME280;6600;51.362;6.686;2023-04-21T08:06:04;100942.69;;;12.72;99.07
13068;BME280;6600;51.362;6.686;2023-04-21T08:08:29;100953.75;;;12.82;98.84
13068;BME280;6600;51.362;6.686;2023-04-21T08:10:55;100949.88;;;12.78;98.98
13068;BME280;6600;51.362;6.686;2023-04-21T08:13:20;100946.25;;;12.65;97.88
13068;BME280;6600;51.362;6.686;2023-04-21T08:15:50;100942.69;;;12.72;98.26
13068;BME280;6600;51.362;6.686;2023-04-21T08:18:15;100943.94;;;12.87;98.74
13068;BME280;6600;51.362;6.686;2023-04-21T08:20:43;100942.38;;;12.98;98.02
13068;BME280;6600;51.362;6.686;2023-04-21T08:23:08;100950.00;;;13.19;98.29
13068;BME280;6600;51.362;6.686;2023-04-21T08:25:33;100954.34;;;13.20;97.11
13068;BME280;6600;51.362;6.686;2023-04-21T08:27:59;100957.63;;;13.22;96.68
13068;BME280;6600;51.362;6.686;2023-04-21T08:30:26;100954.78;;;13.17;96.94
13068;BME280;6600;51.362;6.686;2023-04-21T08:32:51;100951.97;;;13.12;96.79
13068;BME280;6600;51.362;6.686;2023-04-21T08:35:17;100954.41;;;13.13;96.57
13068;BME280;6600;51.362;6.686;2023-04-21T08:37:42;100954.34;;;13.20;96.95
13068;BME280;6600;51.362;6.686;2023-04-21T08:40:08;100954.84;;;13.29;97.20
13068;BME280;6600;51.362;6.686;2023-04-21T08:42:34;100953.91;;;13.23;97.46
13068;BME280;6600;51.362;6.686;2023-04-21T08:45:01;100944.47;;;13.14;97.70
13068;BME280;6600;51.362;6.686;2023-04-21T08:47:27;100946.41;;;13.25;97.77
13068;BME280;6600;51.362;6.686;2023-04-21T08:49:53;100945.34;;;13.44;97.63
13068;BME280;6600;51.362;6.686;2023-04-21T08:52:18;100945.50;;;13.61;96.68
13068;BME280;6600;51.362;6.686;2023-04-21T08:54:45;100942.97;;;13.18;94.37
13068;BME280;6600;51.362;6.686;2023-04-21T08:57:11;100938.97;;;13.39;95.80
13068;BME280;6600;51.362;6.686;2023-04-21T08:59:36;100943.59;;;13.50;96.65
13068;BME280;6600;51.362;6.686;2023-04-21T09:02:06;100938.25;;;13.61;96.50
13068;BME280;6600;51.362;6.686;2023-04-21T09:04:31;100935.31;;;13.63;97.18
13068;BME280;6600;51.362;6.686;2023-04-21T09:06:57;100938.38;;;13.66;96.07
13068;BME280;6600;51.362;6.686;2023-04-21T09:09:22;100940.75;;;13.75;94.96
13068;BME280;6600;51.362;6.686;2023-04-21T09:11:57;100940.53;;;13.88;93.75
13068;BME280;6600;51.362;6.686;2023-04-21T09:14:32;100935.97;;;13.88;93.05
13068;BME280;6600;51.362;6.686;2023-04-21T09:17:02;100930.44;;;13.72;93.82
13068;BME280;6600;51.362;6.686;2023-04-21T09:19:29;100931.59;;;13.76;93.36
13068;BME280;6600;51.362;6.686;2023-04-21T09:21:54;100935.81;;;13.72;94.23
13068;BME280;6600;51.362;6.686;2023-04-21T09:24:20;100940.63;;;13.81;94.18
13068;BME280;6600;51.362;6.686;2023-04-21T09:26:50;100932.16;;;13.66;92.89
13068;BME280;6600;51.362;6.686;2023-04-21T09:29:25;100941.19;;;13.72;93.99
13068;BME280;6600;51.362;6.686;2023-04-21T09:31:51;100936.97;;;13.76;93.88
13068;BME280;6600;51.362;6.686;2023-04-21T09:34:24;100942.03;;;13.84;93.18
13068;BME280;6600;51.362;6.686;2023-04-21T09:37:00;100942.34;;;13.76;93.00
13068;BME280;6600;51.362;6.686;2023-04-21T09:39:28;100939.34;;;13.84;93.10
13068;BME280;6600;51.362;6.686;2023-04-21T09:41:54;100935.03;;;13.94;92.49
13068;BME280;6600;51.362;6.686;2023-04-21T09:44:19;100938.22;;;14.03;93.51
13068;BME280;6600;51.362;6.686;2023-04-21T09:46:47;100936.22;;;14.10;92.76
13068;BME280;6600;51.362;6.686;2023-04-21T09:49:15;100932.34;;;14.06;92.97
13068;BME280;6600;51.362;6.686;2023-04-21T09:51:42;100937.28;;;14.09;92.96
13068;BME280;6600;51.362;6.686;2023-04-21T09:54:19;100927.44;;;14.26;92.78
13068;BME280;6600;51.362;6.686;2023-04-21T09:56:48;100930.72;;;14.28;92.11
13068;BME280;6600;51.362;6.686;2023-04-21T09:59:18;100922.19;;;14.43;91.99
13068;BME280;6600;51.362;6.686;2023-04-21T10:01:47;100925.38;;;14.51;91.33
13068;BME280;6600;51.362;6.686;2023-04-21T10:04:13;100911.50;;;14.59;91.74
13068;BME280;6600;51.362;6.686;2023-04-21T10:06:39;100914.09;;;14.54;91.43
13068;BME280;6600;51.362;6.686;2023-04-21T10:09:06;100907.41;;;14.57;90.26
13068;BME280;6600;51.362;6.686;2023-04-21T10:11:34;100916.63;;;14.73;90.33
13068;BME280;6600;51.362;6.686;2023-04-21T10:14:00;100904.44;;;14.82;89.54
13068;BME280;6600;51.362;6.686;2023-04-21T10:16:26;100902.03;;;14.97;88.81
13068;BME280;6600;51.362;6.686;2023-04-21T10:18:51;100901.28;;;15.13;89.10
13068;BME280;6600;51.362;6.686;2023-04-21T10:21:20;100903.75;;;15.31;88.66
13068;BME280;6600;51.362;6.686;2023-04-21T10:23:52;100899.34;;;15.53;88.55
13068;BME280;6600;51.362;6.686;2023-04-21T10:26:23;100897.66;;;15.64;88.54
13068;BME280;6600;51.362;6.686;2023-04-21T10:29:04;100899.88;;;15.84;88.52
13068;BME280;6600;51.362;6.686;2023-04-21T10:41:50;100892.75;;;15.78;84.97
13068;BME280;6600;51.362;6.686;2023-04-21T10:44:16;100888.41;;;15.77;84.96
13068;BME280;6600;51.362;6.686;2023-04-21T10:49:23;100884.72;;;15.99;86.40
13068;BME280;6600;51.362;6.686;2023-04-21T10:54:24;100856.41;;;15.85;86.86
13068;BME280;6600;51.362;6.686;2023-04-21T10:56:51;100854.81;;;16.06;86.81
13068;BME280;6600;51.362;6.686;2023-04-21T10:59:18;100855.63;;;16.61;87.03
13068;BME280;6600;51.362;6.686;2023-04-21T11:01:44;100852.44;;;16.70;84.58
13068;BME280;6600;51.362;6.686;2023-04-21T11:04:16;100862.63;;;16.62;84.08
13068;BME280;6600;51.362;6.686;2023-04-21T11:06:42;100854.47;;;16.57;82.49
13068;BME280;6600;51.362;6.686;2023-04-21T11:09:08;100853.25;;;16.70;82.93
13068;BME280;6600;51.362;6.686;2023-04-21T11:11:35;100856.09;;;16.58;83.38
13068;BME280;6600;51.362;6.686;2023-04-21T11:14:01;100844.03;;;16.93;83.57
13068;BME280;6600;51.362;6.686;2023-04-21T11:16:26;100836.06;;;17.03;82.29
13068;BME280;6600;51.362;6.686;2023-04-21T11:18:55;100843.66;;;16.57;80.85
13068;BME280;6600;51.362;6.686;2023-04-21T11:21:21;100833.97;;;16.61;83.94
13068;BME280;6600;51.362;6.686;2023-04-21T11:23:53;100830.84;;;17.23;83.82
13068;BME280;6600;51.362;6.686;2023-04-21T11:26:35;100821.44;;;17.57;81.96
13068;BME280;6600;51.362;6.686;2023-04-21T11:29:05;100821.91;;;17.54;79.33
13068;BME280;6600;51.362;6.686;2023-04-21T11:31:31;100816.88;;;17.36;79.76
13068;BME280;6600;51.362;6.686;2023-04-21T11:34:00;100815.22;;;17.30;80.67
13068;BME280;6600;51.362;6.686;2023-04-21T11:36:26;100817.34;;;17.01;80.49
13068;BME280;6600;51.362;6.686;2023-04-21T11:38:52;100810.41;;;16.84;81.92
13068;BME280;6600;51.362;6.686;2023-04-21T11:41:21;100798.75;;;16.83;82.61
13068;BME280;6600;51.362;6.686;2023-04-21T11:43:48;100801.94;;;17.02;81.98
13068;BME280;6600;51.362;6.686;2023-04-21T11:46:24;100787.38;;;17.08;81.74
13068;BME280;6600;51.362;6.686;2023-04-21T11:49:01;100779.59;;;17.48;83.21
13068;BME280;6600;51.362;6.686;2023-04-21T11:51:34;100779.69;;;17.58;79.70
13068;BME280;6600;51.362;6.686;2023-04-21T11:54:00;100778.50;;;17.49;79.59
13068;BME280;6600;51.362;6.686;2023-04-21T11:56:25;100787.59;;;17.33;79.22
13068;BME280;6600;51.362;6.686;2023-04-21T11:58:51;100778.81;;;17.21;81.25
13068;BME280;6600;51.362;6.686;2023-04-21T12:01:17;100778.22;;;17.14;81.72
13068;BME280;6600;51.362;6.686;2023-04-21T12:03:50;100780.31;;;17.39;81.45
13068;BME280;6600;51.362;6.686;2023-04-21T12:06:22;100767.59;;;17.39;80.34
13068;BME280;6600;51.362;6.686;2023-04-21T12:08:59;100760.03;;;17.41;80.47
13068;BME280;6600;51.362;6.686;2023-04-21T12:11:27;100756.47;;;17.36;80.62
13068;BME280;6600;51.362;6.686;2023-04-21T12:13:55;100750.88;;;17.47;79.63
13068;BME280;6600;51.362;6.686;2023-04-21T12:16:20;100750.75;;;17.64;79.99
13068;BME280;6600;51.362;6.686;2023-04-21T12:18:47;100750.06;;;17.84;79.62
13068;BME280;6600;51.362;6.686;2023-04-21T12:21:14;100742.44;;;17.81;78.63
13068;BME280;6600;51.362;6.686;2023-04-21T12:23:40;100738.78;;;18.07;78.05
13068;BME280;6600;51.362;6.686;2023-04-21T12:26:05;100737.13;;;17.96;78.93
13068;BME280;6600;51.362;6.686;2023-04-21T12:28:31;100724.09;;;17.98;77.19
13068;BME280;6600;51.362;6.686;2023-04-21T12:30:56;100723.94;;;18.20;77.54
13068;BME280;6600;51.362;6.686;2023-04-21T12:33:21;100721.53;;;18.33;77.97
13068;BME280;6600;51.362;6.686;2023-04-21T12:35:46;100721.75;;;18.16;76.54
13068;BME280;6600;51.362;6.686;2023-04-21T12:38:12;100710.38;;;18.20;76.42
13068;BME280;6600;51.362;6.686;2023-04-21T12:40:37;100712.25;;;18.14;75.82
13068;BME280;6600;51.362;6.686;2023-04-21T12:43:02;100709.59;;;18.29;76.68
13068;BME280;6600;51.362;6.686;2023-04-21T12:45:28;100703.34;;;18.29;77.01
13068;BME280;6600;51.362;6.686;2023-04-21T12:47:53;100702.25;;;18.25;76.32
13068;BME280;6600;51.362;6.686;2023-04-21T12:50:19;100700.38;;;18.30;76.53
13068;BME280;6600;51.362;6.686;2023-04-21T12:52:45;100692.19;;;18.15;77.53
13068;BME280;6600;51.362;6.686;2023-04-21T12:55:10;100688.38;;;18.06;76.08
13068;BME280;6600;51.362;6.686;2023-04-21T12:57:37;100686.75;;;18.15;76.93
13068;BME280;6600;51.362;6.686;2023-04-21T13:00:03;100682.72;;;18.23;76.00
13068;BME280;6600;51.362;6.686;2023-04-21T13:02:30;100699.53;;;18.20;76.10
13068;BME280;6600;51.362;6.686;2023-04-21T13:05:01;100690.13;;;18.47;76.25
13068;BME280;6600;51.362;6.686;2023-04-21T13:07:26;100698.06;;;18.79;75.03
13068;BME280;6600;51.362;6.686;2023-04-21T13:09:55;100686.97;;;18.96;73.28